Time;durP1;ratioP1;P1;durP2;ratioP2;P2;SDS_P1;SDS_P2;PMS_P1;PMS_P2;Temp;Humidity;BMP_temperature;BMP_pressure;BME280_temperature;BME280_humidity;BME280_pressure;Samples;Min_cycle;Max_cycle;Signal;HPM_P1;HPM_P2
2021/12/02 00:01:55;;;;;;;12.48;4.05;;;;;;;;;;5029851;28;20028;-67
2021/12/02 00:04:20;;;;;;;19.00;4.80;;;;;;;;;;5031191;28;20493;-66
2021/12/02 00:06:46;;;;;;;16.38;4.22;;;;;;;;;;5029867;28;20053;-66
2021/12/02 00:09:11;;;;;;;14.57;4.33;;;;;;;;;;5030388;28;20029;-66
2021/12/02 00:11:36;;;;;;;11.27;4.45;;;;;;;;;;5030394;28;20850;-66
2021/12/02 00:14:08;;;;;;;20.85;4.72;;;;;;;;;;5031059;28;20123;-65
2021/12/02 00:16:49;;;;;;;20.45;5.10;;;;;;;;;;5030557;28;20074;-65
2021/12/02 00:22:01;;;;;;;13.13;4.55;;;;;;;;;;5030135;28;20107;-67
2021/12/02 00:24:29;;;;;;;28.08;6.05;;;;;;;;;;5030310;28;20025;-66
2021/12/02 00:26:54;;;;;;;23.92;7.13;;;;;;;;;;5030608;28;20486;-66
2021/12/02 00:29:21;;;;;;;14.80;5.10;;;;;;;;;;5030166;28;20052;-66
2021/12/02 00:31:47;;;;;;;17.75;6.03;;;;;;;;;;5026586;28;20021;-65
2021/12/02 00:34:13;;;;;;;24.98;6.55;;;;;;;;;;5023206;28;20079;-65
2021/12/02 00:36:38;;;;;;;22.98;7.70;;;;;;;;;;5030237;28;20022;-65
2021/12/02 00:39:10;;;;;;;21.35;6.85;;;;;;;;;;5029887;28;20025;-65
2021/12/02 00:41:36;;;;;;;28.35;5.80;;;;;;;;;;5029003;28;20017;-66
2021/12/02 00:44:02;;;;;;;21.95;6.70;;;;;;;;;;5030122;28;20025;-67
2021/12/02 00:46:31;;;;;;;19.83;7.47;;;;;;;;;;5027121;28;20547;-66
2021/12/02 00:48:57;;;;;;;30.03;6.60;;;;;;;;;;5026417;28;20037;-67
2021/12/02 00:51:26;;;;;;;20.75;7.53;;;;;;;;;;5028299;28;20268;-66
2021/12/02 00:53:54;;;;;;;24.95;7.28;;;;;;;;;;5027103;28;20112;-66
2021/12/02 00:56:24;;;;;;;23.40;8.80;;;;;;;;;;5028405;28;20029;-67
2021/12/02 00:58:49;;;;;;;19.13;6.63;;;;;;;;;;5028000;28;20079;-67
2021/12/02 01:01:15;;;;;;;23.73;7.93;;;;;;;;;;5028025;28;20558;-67
2021/12/02 01:03:42;;;;;;;23.75;7.70;;;;;;;;;;5026145;28;20017;-67
2021/12/02 01:06:07;;;;;;;23.35;7.90;;;;;;;;;;5028334;28;20033;-67
2021/12/02 01:08:33;;;;;;;30.15;9.60;;;;;;;;;;5027323;28;20496;-67
2021/12/02 01:10:58;;;;;;;25.33;10.45;;;;;;;;;;5027207;28;20481;-67
2021/12/02 01:13:23;;;;;;;19.75;8.45;;;;;;;;;;5028264;28;20033;-67
2021/12/02 01:15:49;;;;;;;29.17;10.45;;;;;;;;;;5027435;28;20546;-67
2021/12/02 01:18:15;;;;;;;18.42;8.55;;;;;;;;;;5028303;28;20021;-67
2021/12/02 01:20:41;;;;;;;21.70;9.07;;;;;;;;;;5027944;28;20390;-67
2021/12/02 01:23:07;;;;;;;32.50;10.95;;;;;;;;;;5027147;28;20370;-67
2021/12/02 01:25:33;;;;;;;30.33;11.85;;;;;;;;;;5029485;28;20013;-67
2021/12/02 01:27:59;;;;;;;19.77;9.20;;;;;;;;;;5030133;28;20021;-67
2021/12/02 01:30:25;;;;;;;26.92;10.27;;;;;;;;;;5029391;28;20041;-66
2021/12/02 01:32:50;;;;;;;36.55;12.82;;;;;;;;;;5029793;28;20017;-66
2021/12/02 01:35:15;;;;;;;35.65;11.73;;;;;;;;;;5030130;28;20025;-66
2021/12/02 01:37:41;;;;;;;32.47;11.05;;;;;;;;;;5029264;28;20071;-66
2021/12/02 01:40:07;;;;;;;43.15;12.02;;;;;;;;;;5029546;28;20021;-67
2021/12/02 01:42:35;;;;;;;34.42;12.25;;;;;;;;;;5029595;28;20049;-66
2021/12/02 01:45:01;;;;;;;33.47;11.00;;;;;;;;;;5029374;28;20025;-66
2021/12/02 01:47:28;;;;;;;38.33;12.32;;;;;;;;;;5029898;28;20446;-66
2021/12/02 01:49:56;;;;;;;21.35;10.20;;;;;;;;;;5012054;28;20022;-65
2021/12/02 01:52:26;;;;;;;36.33;13.43;;;;;;;;;;5028882;28;20056;-66
2021/12/02 01:55:02;;;;;;;26.95;10.63;;;;;;;;;;5029409;28;20053;-66
2021/12/02 01:57:33;;;;;;;23.75;8.50;;;;;;;;;;5029209;28;20032;-66
2021/12/02 02:00:05;;;;;;;27.67;9.85;;;;;;;;;;5029364;28;20377;-67
2021/12/02 02:02:32;;;;;;;25.17;10.50;;;;;;;;;;5027615;28;20485;-67
2021/12/02 02:05:00;;;;;;;27.42;10.88;;;;;;;;;;5029962;28;20583;-67
2021/12/02 02:07:26;;;;;;;30.33;9.02;;;;;;;;;;5032966;28;20052;-67
2021/12/02 02:09:51;;;;;;;18.88;8.65;;;;;;;;;;5032965;28;20053;-67
2021/12/02 02:12:16;;;;;;;20.67;8.75;;;;;;;;;;5033187;28;20421;-67
2021/12/02 02:14:42;;;;;;;23.98;9.52;;;;;;;;;;5033197;28;20025;-67
2021/12/02 02:17:16;;;;;;;21.70;10.77;;;;;;;;;;5033124;28;20030;-67
2021/12/02 02:19:41;;;;;;;19.90;9.43;;;;;;;;;;5032574;28;20021;-67
2021/12/02 02:22:07;;;;;;;20.63;8.80;;;;;;;;;;5032388;28;20017;-65
2021/12/02 02:24:32;;;;;;;27.13;11.13;;;;;;;;;;5032810;28;20063;-66
2021/12/02 02:26:57;;;;;;;20.60;9.60;;;;;;;;;;5032729;28;20048;-66
2021/12/02 02:29:23;;;;;;;19.00;9.00;;;;;;;;;;5033125;28;20045;-65
2021/12/02 02:31:49;;;;;;;18.55;8.90;;;;;;;;;;5032383;28;20034;-66
2021/12/02 02:34:14;;;;;;;24.38;10.13;;;;;;;;;;5031813;28;20211;-66
2021/12/02 02:36:48;;;;;;;24.27;11.55;;;;;;;;;;5029841;28;20091;-65
2021/12/02 02:39:14;;;;;;;24.38;9.85;;;;;;;;;;5032243;28;20058;-65
2021/12/02 02:41:42;;;;;;;28.17;10.10;;;;;;;;;;5032484;28;20063;-65
2021/12/02 02:44:07;;;;;;;28.92;9.57;;;;;;;;;;5032258;28;20021;-66
2021/12/02 02:46:34;;;;;;;19.02;8.77;;;;;;;;;;5032938;28;20572;-67
2021/12/02 02:49:00;;;;;;;22.23;8.15;;;;;;;;;;5031934;28;20148;-67
2021/12/02 02:51:26;;;;;;;22.65;9.73;;;;;;;;;;5031637;28;20030;-67
2021/12/02 02:53:54;;;;;;;18.65;8.63;;;;;;;;;;5032392;28;20032;-67
2021/12/02 02:56:20;;;;;;;18.20;9.20;;;;;;;;;;5032982;28;20472;-67
2021/12/02 03:04:02;;;;;;;32.63;9.00;;;;;;;;;;5032479;28;20466;-67
2021/12/02 03:06:38;;;;;;;18.80;9.18;;;;;;;;;;5026587;28;20156;-67
2021/12/02 03:09:12;;;;;;;26.42;10.77;;;;;;;;;;5031862;28;20033;-67
2021/12/02 03:11:43;;;;;;;21.70;8.63;;;;;;;;;;5031798;28;20453;-67
2021/12/02 03:14:12;;;;;;;22.98;7.85;;;;;;;;;;5031891;28;20112;-67
2021/12/02 03:16:47;;;;;;;23.50;8.63;;;;;;;;;;5031244;28;20028;-67
2021/12/02 03:19:23;;;;;;;18.95;7.70;;;;;;;;;;5014014;28;20029;-67
2021/12/02 03:21:48;;;;;;;20.58;7.47;;;;;;;;;;5030714;28;20021;-67
2021/12/02 03:24:13;;;;;;;23.40;7.50;;;;;;;;;;5031410;28;20025;-67
2021/12/02 03:26:38;;;;;;;20.92;8.32;;;;;;;;;;5031269;28;20032;-66
2021/12/02 03:29:05;;;;;;;21.42;7.53;;;;;;;;;;5031540;28;20105;-67
2021/12/02 03:31:30;;;;;;;27.02;7.50;;;;;;;;;;5030818;28;20026;-67
2021/12/02 03:33:55;;;;;;;24.90;7.68;;;;;;;;;;5031349;28;20104;-67
2021/12/02 03:36:20;;;;;;;22.45;8.07;;;;;;;;;;5031639;28;20040;-67
2021/12/02 03:38:46;;;;;;;19.88;9.05;;;;;;;;;;5031452;28;20378;-67
2021/12/02 03:41:11;;;;;;;17.65;7.90;;;;;;;;;;5030660;28;20092;-67
2021/12/02 03:43:37;;;;;;;24.92;8.63;;;;;;;;;;5031701;28;20075;-66
2021/12/02 03:46:03;;;;;;;21.88;8.10;;;;;;;;;;5030803;28;20031;-66
2021/12/02 03:48:28;;;;;;;27.05;8.25;;;;;;;;;;5031282;28;20014;-66
2021/12/02 03:50:53;;;;;;;19.40;6.93;;;;;;;;;;5030745;28;20100;-66
2021/12/02 03:53:18;;;;;;;18.08;7.57;;;;;;;;;;5031100;28;20384;-66
2021/12/02 03:55:43;;;;;;;17.13;6.95;;;;;;;;;;5030714;28;20025;-66
2021/12/02 03:58:09;;;;;;;21.15;9.02;;;;;;;;;;5030052;28;20041;-67
2021/12/02 04:00:34;;;;;;;19.20;7.65;;;;;;;;;;5030286;28;20019;-67
2021/12/02 04:02:59;;;;;;;24.00;6.93;;;;;;;;;;5030733;28;20013;-67
2021/12/02 04:05:24;;;;;;;24.00;7.47;;;;;;;;;;5026627;28;20033;-67
2021/12/02 04:07:50;;;;;;;16.23;6.55;;;;;;;;;;5030581;28;20021;-67
2021/12/02 04:10:15;;;;;;;15.27;5.93;;;;;;;;;;5030306;28;20029;-67
2021/12/02 04:12:50;;;;;;;17.25;6.15;;;;;;;;;;5030679;28;20022;-67
2021/12/02 04:15:29;;;;;;;12.35;6.05;;;;;;;;;;5030289;28;20140;-66
2021/12/02 04:17:54;;;;;;;20.58;6.22;;;;;;;;;;5030850;28;20010;-66
2021/12/02 04:20:20;;;;;;;25.87;6.57;;;;;;;;;;5030009;28;20025;-66
2021/12/02 04:22:46;;;;;;;12.82;6.35;;;;;;;;;;5030994;28;20259;-67
2021/12/02 04:25:12;;;;;;;15.70;6.28;;;;;;;;;;5030562;28;20033;-66
2021/12/02 04:27:37;;;;;;;27.48;7.30;;;;;;;;;;5022367;28;20048;-66
2021/12/02 04:30:07;;;;;;;21.15;7.72;;;;;;;;;;5029122;28;20474;-67
2021/12/02 04:32:32;;;;;;;24.80;7.15;;;;;;;;;;5030690;28;20498;-67
2021/12/02 04:34:58;;;;;;;14.40;6.30;;;;;;;;;;5030184;28;20044;-67
2021/12/02 04:37:23;;;;;;;16.77;5.97;;;;;;;;;;5030565;28;20029;-67
2021/12/02 04:39:48;;;;;;;11.95;5.68;;;;;;;;;;5029872;28;20026;-67
2021/12/02 04:42:13;;;;;;;14.20;4.30;;;;;;;;;;5029729;28;20041;-67
2021/12/02 04:44:38;;;;;;;11.43;2.85;;;;;;;;;;5030414;28;20264;-67
2021/12/02 04:47:03;;;;;;;7.20;2.45;;;;;;;;;;5030192;28;20556;-67
2021/12/02 04:49:29;;;;;;;12.45;3.03;;;;;;;;;;5030364;28;20116;-66
2021/12/02 04:51:54;;;;;;;10.30;2.45;;;;;;;;;;5029961;28;20037;-66
2021/12/02 04:54:19;;;;;;;9.50;2.13;;;;;;;;;;5030179;28;20108;-66
2021/12/02 04:56:44;;;;;;;8.50;2.25;;;;;;;;;;5029485;28;20040;-66
2021/12/02 04:59:10;;;;;;;5.88;1.88;;;;;;;;;;5029457;28;20021;-66
2021/12/02 05:01:35;;;;;;;6.45;1.40;;;;;;;;;;5029385;28;20036;-66
2021/12/02 05:04:00;;;;;;;8.35;1.35;;;;;;;;;;5030356;28;20062;-66
2021/12/02 05:06:25;;;;;;;5.43;1.48;;;;;;;;;;5030684;28;20107;-66
2021/12/02 05:08:50;;;;;;;5.25;1.88;;;;;;;;;;5029858;28;20069;-66
2021/12/02 05:11:16;;;;;;;4.85;2.00;;;;;;;;;;5029721;28;20541;-66
2021/12/02 05:13:41;;;;;;;10.97;2.30;;;;;;;;;;5029683;28;20025;-67
2021/12/02 05:16:06;;;;;;;11.02;2.95;;;;;;;;;;5029696;28;20616;-67
2021/12/02 05:18:31;;;;;;;7.53;3.10;;;;;;;;;;5014543;28;20017;-67
2021/12/02 05:20:57;;;;;;;17.02;5.88;;;;;;;;;;5029161;28;20033;-67
2021/12/02 05:23:22;;;;;;;15.63;5.90;;;;;;;;;;5029803;28;20013;-67
2021/12/02 05:25:48;;;;;;;20.42;5.50;;;;;;;;;;5029924;28;20021;-67
2021/12/02 05:28:15;;;;;;;18.92;5.90;;;;;;;;;;5028632;28;20025;-67
2021/12/02 05:30:40;;;;;;;19.48;5.80;;;;;;;;;;5029184;28;20028;-67
2021/12/02 05:33:06;;;;;;;13.82;5.70;;;;;;;;;;5029583;28;20025;-67
2021/12/02 05:35:31;;;;;;;14.88;5.28;;;;;;;;;;5029804;28;20061;-67
2021/12/02 05:37:56;;;;;;;16.23;5.85;;;;;;;;;;5029375;28;20355;-67
2021/12/02 05:40:21;;;;;;;13.40;5.18;;;;;;;;;;5030315;28;20025;-67
2021/12/02 05:42:46;;;;;;;14.07;6.10;;;;;;;;;;5032653;28;20013;-66
2021/12/02 05:45:12;;;;;;;17.42;6.70;;;;;;;;;;5033381;28;20555;-66
2021/12/02 05:47:37;;;;;;;10.00;5.75;;;;;;;;;;5034186;28;20021;-66
2021/12/02 05:50:02;;;;;;;16.88;5.22;;;;;;;;;;5032165;28;20022;-66
2021/12/02 05:52:27;;;;;;;11.90;6.28;;;;;;;;;;5032735;28;20048;-66
2021/12/02 05:54:53;;;;;;;14.48;5.22;;;;;;;;;;5033182;28;20029;-66
2021/12/02 05:57:18;;;;;;;13.98;5.70;;;;;;;;;;5023406;28;20104;-66
2021/12/02 05:59:44;;;;;;;20.02;7.60;;;;;;;;;;5032838;28;20009;-66
2021/12/02 06:02:09;;;;;;;14.13;5.97;;;;;;;;;;5032797;28;20028;-66
2021/12/02 06:04:37;;;;;;;15.50;5.28;;;;;;;;;;5033170;28;20032;-66
2021/12/02 06:07:02;;;;;;;25.75;6.82;;;;;;;;;;5029360;28;20022;-66
2021/12/02 06:09:27;;;;;;;17.48;6.05;;;;;;;;;;5032740;28;20371;-66
2021/12/02 06:11:52;;;;;;;12.18;4.90;;;;;;;;;;5032289;28;20086;-66
2021/12/02 06:14:18;;;;;;;21.45;5.57;;;;;;;;;;5032892;28;20025;-66
2021/12/02 06:16:43;;;;;;;13.20;5.63;;;;;;;;;;5029665;28;20029;-66
2021/12/02 06:19:08;;;;;;;12.25;4.38;;;;;;;;;;5030208;28;20266;-66
2021/12/02 06:21:34;;;;;;;22.55;5.47;;;;;;;;;;5029800;28;20450;-66
2021/12/02 06:24:01;;;;;;;19.25;6.40;;;;;;;;;;5037736;28;20025;-66
2021/12/02 06:26:26;;;;;;;18.30;5.68;;;;;;;;;;5045919;28;20031;-66
2021/12/02 06:28:52;;;;;;;23.40;6.25;;;;;;;;;;5018149;28;20029;-66
2021/12/02 06:31:17;;;;;;;20.90;5.70;;;;;;;;;;5030441;28;20109;-66
2021/12/02 06:33:42;;;;;;;20.55;8.13;;;;;;;;;;5030693;28;20283;-66
2021/12/02 06:36:07;;;;;;;17.88;7.55;;;;;;;;;;5026219;28;20026;-66
2021/12/02 06:38:33;;;;;;;13.05;6.90;;;;;;;;;;5028869;28;20097;-66
2021/12/02 06:40:58;;;;;;;16.97;5.43;;;;;;;;;;5029746;28;20406;-66
2021/12/02 06:43:23;;;;;;;21.15;7.30;;;;;;;;;;5030417;28;20266;-66
2021/12/02 06:45:48;;;;;;;11.60;5.57;;;;;;;;;;5029974;28;20025;-66
2021/12/02 06:48:13;;;;;;;12.25;5.43;;;;;;;;;;5035643;28;20030;-66
2021/12/02 06:50:39;;;;;;;13.48;5.20;;;;;;;;;;5032139;28;20022;-66
2021/12/02 06:53:04;;;;;;;10.10;3.42;;;;;;;;;;5031742;28;20030;-66
2021/12/02 06:55:30;;;;;;;8.55;3.53;;;;;;;;;;5030879;28;20021;-66
2021/12/02 06:57:56;;;;;;;14.32;3.30;;;;;;;;;;5030152;28;20478;-66
2021/12/02 07:00:21;;;;;;;10.40;2.20;;;;;;;;;;5029195;28;20018;-66
2021/12/02 07:02:47;;;;;;;10.35;2.65;;;;;;;;;;5029091;28;20438;-68
2021/12/02 07:05:13;;;;;;;7.53;2.85;;;;;;;;;;5025947;28;20561;-67
2021/12/02 07:07:38;;;;;;;6.78;1.98;;;;;;;;;;5028726;28;20022;-66
2021/12/02 07:10:15;;;;;;;11.90;3.50;;;;;;;;;;5031639;28;20437;-67
2021/12/02 07:12:42;;;;;;;9.27;3.35;;;;;;;;;;5032054;28;20018;-67
2021/12/02 07:15:19;;;;;;;10.63;3.83;;;;;;;;;;5031099;28;20056;-66
2021/12/02 07:17:45;;;;;;;6.95;3.38;;;;;;;;;;5025571;28;20405;-66
2021/12/02 07:20:11;;;;;;;12.18;3.97;;;;;;;;;;5031257;28;20017;-67
2021/12/02 07:22:36;;;;;;;14.55;5.05;;;;;;;;;;5014050;28;20030;-67
2021/12/02 07:25:02;;;;;;;15.77;4.68;;;;;;;;;;5030888;28;20044;-66
2021/12/02 07:27:27;;;;;;;11.10;4.18;;;;;;;;;;5031680;28;20017;-67
2021/12/02 07:29:53;;;;;;;14.68;4.68;;;;;;;;;;5031032;28;20382;-67
2021/12/02 07:32:19;;;;;;;11.63;4.35;;;;;;;;;;5029323;28;20159;-67
2021/12/02 07:34:45;;;;;;;13.10;5.07;;;;;;;;;;5037814;28;20022;-66
2021/12/02 07:37:12;;;;;;;14.68;5.15;;;;;;;;;;5029488;28;20562;-66
2021/12/02 07:39:38;;;;;;;10.60;4.43;;;;;;;;;;5012039;28;20074;-66
2021/12/02 07:42:03;;;;;;;19.25;8.10;;;;;;;;;;5029764;28;20393;-66
2021/12/02 07:44:28;;;;;;;7.65;4.57;;;;;;;;;;5031918;28;20028;-66
2021/12/02 07:46:55;;;;;;;11.85;4.43;;;;;;;;;;5031541;28;20021;-66
2021/12/02 07:49:21;;;;;;;14.15;5.85;;;;;;;;;;5031093;28;20112;-66
2021/12/02 07:51:49;;;;;;;9.80;4.22;;;;;;;;;;5031195;28;20147;-66
2021/12/02 07:54:16;;;;;;;13.30;5.15;;;;;;;;;;5030424;28;20021;-66
2021/12/02 07:56:41;;;;;;;12.35;4.78;;;;;;;;;;5045791;28;20374;-66
2021/12/02 07:59:09;;;;;;;12.98;4.30;;;;;;;;;;5030361;28;20028;-66
2021/12/02 08:01:35;;;;;;;11.82;4.22;;;;;;;;;;5029832;28;20029;-66
2021/12/02 08:04:00;;;;;;;6.55;3.70;;;;;;;;;;5029918;28;20378;-66
2021/12/02 08:06:26;;;;;;;14.20;4.90;;;;;;;;;;5029587;28;20079;-66
2021/12/02 08:08:51;;;;;;;14.32;4.50;;;;;;;;;;5029447;28;20029;-66
2021/12/02 08:11:16;;;;;;;16.13;4.07;;;;;;;;;;5029771;28;20060;-66
2021/12/02 08:13:41;;;;;;;13.50;4.80;;;;;;;;;;5030192;28;20061;-66
2021/12/02 08:16:07;;;;;;;10.25;4.50;;;;;;;;;;5029869;28;20421;-66
2021/12/02 08:18:33;;;;;;;11.45;4.95;;;;;;;;;;5030621;28;20056;-66
2021/12/02 08:20:59;;;;;;;13.68;5.10;;;;;;;;;;5027761;28;20024;-67
2021/12/02 08:23:24;;;;;;;6.80;3.78;;;;;;;;;;5030705;28;20005;-67
2021/12/02 08:25:50;;;;;;;11.60;3.25;;;;;;;;;;5040401;28;20021;-67
2021/12/02 08:28:15;;;;;;;15.00;3.50;;;;;;;;;;5030917;28;20504;-67
2021/12/02 08:30:40;;;;;;;7.97;3.60;;;;;;;;;;5030296;28;20049;-66
2021/12/02 08:33:07;;;;;;;12.05;3.38;;;;;;;;;;5030081;28;20025;-66
2021/12/02 08:35:34;;;;;;;8.38;3.60;;;;;;;;;;5028146;28;20060;-65
2021/12/02 08:38:07;;;;;;;11.57;3.92;;;;;;;;;;5029656;28;20039;-65
2021/12/02 08:40:34;;;;;;;5.55;2.95;;;;;;;;;;5029670;28;20014;-66
2021/12/02 08:43:00;;;;;;;4.78;2.95;;;;;;;;;;5030664;28;20018;-65
2021/12/02 08:45:26;;;;;;;4.43;2.40;;;;;;;;;;5030031;28;20020;-65
2021/12/02 08:47:51;;;;;;;6.93;2.35;;;;;;;;;;5012897;28;20030;-65
2021/12/02 08:50:17;;;;;;;6.38;2.80;;;;;;;;;;5029644;28;20021;-66
2021/12/02 08:52:43;;;;;;;7.10;3.42;;;;;;;;;;5030791;28;20033;-67
2021/12/02 08:55:09;;;;;;;8.52;2.80;;;;;;;;;;5029663;28;20021;-67
2021/12/02 08:57:35;;;;;;;6.03;2.15;;;;;;;;;;5030285;28;20022;-67
2021/12/02 09:00:02;;;;;;;6.15;1.80;;;;;;;;;;5029262;28;20463;-67
2021/12/02 09:02:28;;;;;;;7.28;2.45;;;;;;;;;;5028191;28;20025;-67
2021/12/02 09:04:53;;;;;;;8.70;2.20;;;;;;;;;;5017672;28;20374;-66
2021/12/02 09:07:18;;;;;;;7.50;2.75;;;;;;;;;;5028741;28;20087;-67
2021/12/02 09:09:43;;;;;;;5.25;2.40;;;;;;;;;;5030041;28;20069;-67
2021/12/02 09:12:09;;;;;;;4.10;2.35;;;;;;;;;;5029725;28;20053;-66
2021/12/02 09:14:34;;;;;;;9.90;2.03;;;;;;;;;;5029965;28;20513;-66
2021/12/02 09:17:00;;;;;;;7.40;2.50;;;;;;;;;;5033058;28;20036;-66
2021/12/02 09:19:25;;;;;;;8.88;4.15;;;;;;;;;;5034144;28;20029;-67
2021/12/02 09:21:50;;;;;;;10.57;2.60;;;;;;;;;;5033816;28;20045;-67
2021/12/02 09:24:18;;;;;;;4.72;2.88;;;;;;;;;;5033569;28;20084;-66
2021/12/02 09:26:45;;;;;;;6.90;2.40;;;;;;;;;;5033817;28;20485;-66
2021/12/02 09:29:10;;;;;;;4.38;1.80;;;;;;;;;;5034088;28;20021;-67
2021/12/02 09:31:35;;;;;;;6.65;2.15;;;;;;;;;;5033280;28;20044;-67
2021/12/02 09:34:00;;;;;;;4.65;2.00;;;;;;;;;;5033604;28;20402;-67
2021/12/02 09:36:26;;;;;;;4.15;1.85;;;;;;;;;;5033049;28;20079;-67
2021/12/02 09:38:51;;;;;;;4.28;1.60;;;;;;;;;;5032680;28;20093;-67
2021/12/02 09:41:16;;;;;;;3.45;1.80;;;;;;;;;;5015101;28;20515;-67
2021/12/02 09:43:41;;;;;;;6.03;1.83;;;;;;;;;;5033122;28;20029;-66
2021/12/02 09:46:07;;;;;;;1.95;1.48;;;;;;;;;;5032631;28;20022;-67
2021/12/02 09:48:33;;;;;;;2.50;1.80;;;;;;;;;;5032767;28;20040;-67
2021/12/02 09:51:11;;;;;;;3.08;1.85;;;;;;;;;;5033061;28;20022;-66
2021/12/02 09:54:04;;;;;;;8.93;1.75;;;;;;;;;;5033370;28;20025;-67
2021/12/02 09:56:28;;;;;;;4.90;1.65;;;;;;;;;;5032377;28;20091;-65
2021/12/02 09:58:56;;;;;;;9.05;2.10;;;;;;;;;;5033693;28;20025;-67
2021/12/02 10:01:26;;;;;;;3.47;1.38;;;;;;;;;;5032474;28;20083;-67
2021/12/02 10:03:58;;;;;;;;;;;;;;;;;;5033895;28;20032;-67
2021/12/02 10:06:28;;;;;;;4.53;1.08;;;;;;;;;;5015080;28;19909;-65
2021/12/02 10:09:16;;;;;;;2.33;1.17;;;;;;;;;;5032550;28;20398;-67
2021/12/02 10:11:46;;;;;;;10.27;1.23;;;;;;;;;;5032968;28;20156;-67
2021/12/02 10:14:14;;;;;;;3.53;1.45;;;;;;;;;;5032611;28;20021;-67
2021/12/02 10:16:43;;;;;;;5.50;1.55;;;;;;;;;;5032552;28;20109;-67
2021/12/02 10:19:20;;;;;;;8.90;1.93;;;;;;;;;;5031418;28;20026;-67
2021/12/02 10:22:02;;;;;;;5.50;2.25;;;;;;;;;;5014756;28;20481;-67
2021/12/02 10:24:28;;;;;;;4.68;2.92;;;;;;;;;;5032093;28;20022;-69
2021/12/02 10:27:04;;;;;;;7.88;3.28;;;;;;;;;;5032207;28;20028;-67
2021/12/02 10:29:30;;;;;;;4.72;3.05;;;;;;;;;;5032630;28;20091;-66
2021/12/02 10:32:08;;;;;;;8.88;4.30;;;;;;;;;;5033124;28;20025;-67
2021/12/02 10:34:45;;;;;;;5.38;3.63;;;;;;;;;;5031505;28;20029;-66
2021/12/02 10:37:11;;;;;;;7.90;3.92;;;;;;;;;;5032763;28;20025;-66
2021/12/02 10:39:36;;;;;;;6.35;2.90;;;;;;;;;;5031436;28;20079;-67
2021/12/02 10:42:04;;;;;;;6.15;3.38;;;;;;;;;;5032709;28;20033;-66
2021/12/02 10:44:34;;;;;;;7.82;3.22;;;;;;;;;;5029487;28;20128;-66
2021/12/02 10:47:13;;;;;;;8.65;3.83;;;;;;;;;;5031258;28;20025;-68
2021/12/02 10:49:47;;;;;;;7.05;4.25;;;;;;;;;;5025258;28;20033;-67
2021/12/02 10:52:16;;;;;;;7.60;4.13;;;;;;;;;;5032007;28;20173;-65
2021/12/02 10:54:43;;;;;;;10.27;4.57;;;;;;;;;;5028967;28;20029;-65
2021/12/02 10:57:13;;;;;;;8.02;4.30;;;;;;;;;;5031219;28;20017;-65
2021/12/02 10:59:41;;;;;;;10.70;4.43;;;;;;;;;;5031443;28;20032;-67
2021/12/02 11:02:08;;;;;;;9.88;4.40;;;;;;;;;;5031573;28;20552;-68
2021/12/02 11:04:38;;;;;;;8.93;3.47;;;;;;;;;;5034235;28;20171;-67
2021/12/02 11:07:09;;;;;;;14.98;4.65;;;;;;;;;;5040127;28;20026;-67
2021/12/02 11:09:35;;;;;;;7.50;4.57;;;;;;;;;;5039882;28;20120;-67
2021/12/02 11:12:08;;;;;;;12.90;4.07;;;;;;;;;;5045693;22;20453;-69
2021/12/02 11:14:33;;;;;;;12.75;4.55;;;;;;;;;;5031262;28;20028;-67
2021/12/02 11:17:14;;;;;;;12.38;4.63;;;;;;;;;;5031509;28;20026;-67
2021/12/02 11:19:44;;;;;;;10.93;4.15;;;;;;;;;;5031647;28;20044;-66
2021/12/02 11:22:10;;;;;;;6.10;3.28;;;;;;;;;;5013018;28;20033;-68
2021/12/02 11:24:37;;;;;;;12.60;3.85;;;;;;;;;;5032827;28;20029;-68
2021/12/02 11:27:10;;;;;;;9.40;4.47;;;;;;;;;;5031638;28;20047;-68
2021/12/02 11:29:47;;;;;;;12.02;3.92;;;;;;;;;;5031587;28;20036;-68
2021/12/02 11:32:32;;;;;;;5.90;3.53;;;;;;;;;;5029581;28;20028;-67
2021/12/02 11:34:59;;;;;;;9.15;3.58;;;;;;;;;;5030042;28;20061;-67
2021/12/02 11:37:25;;;;;;;7.72;2.92;;;;;;;;;;5030696;28;20014;-67
2021/12/02 11:39:50;;;;;;;10.77;3.17;;;;;;;;;;5031305;28;20021;-67
2021/12/02 11:42:16;;;;;;;8.43;3.10;;;;;;;;;;5031027;28;20033;-67
2021/12/02 11:44:42;;;;;;;11.32;4.15;;;;;;;;;;5031141;28;20049;-68
2021/12/02 11:47:07;;;;;;;13.18;3.70;;;;;;;;;;5030633;28;20036;-67
2021/12/02 11:49:33;;;;;;;13.40;2.72;;;;;;;;;;5031251;28;20025;-66
2021/12/02 11:51:59;;;;;;;9.63;3.13;;;;;;;;;;5030682;28;20553;-66
2021/12/02 11:54:24;;;;;;;10.13;2.20;;;;;;;;;;5030325;28;20163;-67
2021/12/02 11:56:49;;;;;;;7.30;2.00;;;;;;;;;;5030524;28;20057;-68
2021/12/02 11:59:16;;;;;;;11.93;2.72;;;;;;;;;;5030375;28;20025;-67
2021/12/02 12:01:43;;;;;;;7.05;1.65;;;;;;;;;;5031255;28;20021;-67
2021/12/02 12:04:09;;;;;;;5.10;2.05;;;;;;;;;;5030354;28;20068;-67
2021/12/02 12:06:35;;;;;;;9.02;3.40;;;;;;;;;;5031046;28;20037;-68
2021/12/02 12:09:09;;;;;;;9.00;3.13;;;;;;;;;;5031697;28;20478;-68
2021/12/02 12:11:34;;;;;;;8.20;2.97;;;;;;;;;;5030581;28;20045;-68
2021/12/02 12:14:02;;;;;;;13.43;3.83;;;;;;;;;;5031353;28;20025;-68
2021/12/02 12:16:29;;;;;;;9.70;4.10;;;;;;;;;;5030808;28;20120;-68
2021/12/02 12:18:55;;;;;;;9.98;4.80;;;;;;;;;;5029516;28;20040;-68
2021/12/02 12:21:37;;;;;;;8.13;4.05;;;;;;;;;;5030788;28;20024;-68
2021/12/02 12:24:02;;;;;;;12.13;3.70;;;;;;;;;;5029851;28;20021;-68
2021/12/02 12:26:31;;;;;;;7.25;3.25;;;;;;;;;;5030049;28;20499;-68
2021/12/02 12:29:05;;;;;;;12.45;3.80;;;;;;;;;;5030904;28;20013;-68
2021/12/02 12:31:52;;;;;;;8.77;4.30;;;;;;;;;;5030915;28;20512;-68
2021/12/02 12:34:30;;;;;;;9.35;4.72;;;;;;;;;;5027321;28;20436;-68
2021/12/02 12:36:56;;;;;;;13.30;4.45;;;;;;;;;;5030765;28;20049;-68
2021/12/02 12:39:23;;;;;;;7.22;4.13;;;;;;;;;;5030462;28;20092;-67
2021/12/02 12:42:11;;;;;;;5.97;3.70;;;;;;;;;;5030441;28;20024;-68
2021/12/02 12:44:49;;;;;;;6.05;3.17;;;;;;;;;;5020279;28;20069;-68
2021/12/02 12:47:14;;;;;;;9.23;3.28;;;;;;;;;;5029638;28;20025;-66
2021/12/02 12:49:40;;;;;;;9.07;4.40;;;;;;;;;;5030396;28;20160;-68
2021/12/02 12:52:18;;;;;;;10.27;3.45;;;;;;;;;;5031037;28;20079;-68
2021/12/02 12:55:02;;;;;;;9.70;4.13;;;;;;;;;;5031094;28;20109;-68
2021/12/02 12:57:27;;;;;;;8.52;3.25;;;;;;;;;;5021507;28;20107;-68
2021/12/02 12:59:55;;;;;;;8.13;2.90;;;;;;;;;;5030710;28;20434;-68
2021/12/02 13:02:21;;;;;;;13.60;3.50;;;;;;;;;;5028991;28;20264;-68
2021/12/02 13:04:52;;;;;;;9.70;2.67;;;;;;;;;;5030692;28;20032;-68
2021/12/02 13:07:18;;;;;;;8.02;3.83;;;;;;;;;;5030651;28;20047;-67
2021/12/02 13:12:19;;;;;;;6.55;2.22;;;;;;;;;;5030162;28;20037;-68
2021/12/02 13:14:45;;;;;;;4.03;2.35;;;;;;;;;;5030590;28;20021;-68
2021/12/02 13:17:29;;;;;;;4.65;1.77;;;;;;;;;;5027405;28;20576;-68
2021/12/02 13:19:58;;;;;;;5.32;2.05;;;;;;;;;;5013014;28;20049;-68
2021/12/02 13:22:23;;;;;;;6.50;2.22;;;;;;;;;;5029401;28;20031;-68
2021/12/02 13:24:48;;;;;;;6.85;2.53;;;;;;;;;;5030154;28;20365;-69
2021/12/02 13:27:13;;;;;;;7.60;2.50;;;;;;;;;;5011159;28;22113;-66
2021/12/02 13:29:39;;;;;;;5.55;2.22;;;;;;;;;;5030272;28;20562;-68
2021/12/02 13:32:10;;;;;;;7.68;1.83;;;;;;;;;;5029034;28;20037;-68
2021/12/02 13:34:36;;;;;;;5.65;2.08;;;;;;;;;;5021512;28;20022;-67
2021/12/02 13:37:08;;;;;;;5.28;2.88;;;;;;;;;;5029743;28;20113;-68
2021/12/02 13:39:38;;;;;;;5.43;2.60;;;;;;;;;;5011760;28;20449;-67
2021/12/02 13:42:10;;;;;;;8.67;2.20;;;;;;;;;;5011780;28;20032;-67
2021/12/02 13:44:48;;;;;;;6.70;2.30;;;;;;;;;;5017132;28;20079;-69
2021/12/02 13:47:28;;;;;;;7.95;2.28;;;;;;;;;;5029552;28;20021;-67
2021/12/02 13:49:55;;;;;;;5.97;2.08;;;;;;;;;;5029845;28;20425;-68
2021/12/02 13:55:03;;;;;;;6.90;1.75;;;;;;;;;;5029257;28;20022;-65
2021/12/02 13:57:48;;;;;;;7.20;1.80;;;;;;;;;;5011511;28;20143;-68
2021/12/02 14:00:18;;;;;;;6.93;2.20;;;;;;;;;;5028924;28;20049;-67
2021/12/02 14:02:45;;;;;;;6.68;2.03;;;;;;;;;;5029172;28;20029;-68
2021/12/02 14:05:11;;;;;;;3.78;1.77;;;;;;;;;;5033441;28;20029;-68
2021/12/02 14:07:38;;;;;;;6.60;2.17;;;;;;;;;;5032815;28;20025;-68
2021/12/02 14:10:04;;;;;;;6.00;2.80;;;;;;;;;;5032929;28;20478;-65
2021/12/02 14:12:41;;;;;;;7.20;1.90;;;;;;;;;;5032520;28;20036;-68
2021/12/02 14:15:11;;;;;;;8.88;2.88;;;;;;;;;;5033279;28;20026;-68
2021/12/02 14:18:06;;;;;;;6.88;2.85;;;;;;;;;;5032512;28;20029;-68
2021/12/02 14:20:33;;;;;;;10.10;2.30;;;;;;;;;;5014689;28;20057;-67
2021/12/02 14:22:59;;;;;;;4.95;2.22;;;;;;;;;;5032080;28;20022;-67
2021/12/02 14:25:28;;;;;;;11.27;2.70;;;;;;;;;;5033426;28;20075;-68
2021/12/02 14:28:11;;;;;;;5.93;2.58;;;;;;;;;;5032914;28;20394;-68
2021/12/02 14:30:43;;;;;;;7.22;2.30;;;;;;;;;;5031880;28;20076;-67
2021/12/02 14:33:09;;;;;;;5.47;2.78;;;;;;;;;;5021727;28;20029;-67
2021/12/02 14:35:42;;;;;;;9.30;2.15;;;;;;;;;;5012804;28;20026;-68
2021/12/02 14:38:22;;;;;;;3.67;2.05;;;;;;;;;;5027126;28;20013;-67
2021/12/02 14:40:48;;;;;;;10.23;3.10;;;;;;;;;;5028496;28;20013;-66
2021/12/02 14:43:13;;;;;;;9.43;2.60;;;;;;;;;;5031670;28;20540;-68
2021/12/02 14:45:38;;;;;;;3.88;2.80;;;;;;;;;;5032032;28;20071;-67
2021/12/02 14:48:04;;;;;;;5.72;2.47;;;;;;;;;;5032257;28;20454;-68
2021/12/02 14:50:29;;;;;;;5.82;2.53;;;;;;;;;;5032158;28;20481;-67